Time;durP1;ratioP1;P1;durP2;ratioP2;P2;SDS_P1;SDS_P2;PMS_P1;PMS_P2;Temp;Humidity;BMP_temperature;BMP_pressure;BME280_temperature;BME280_humidity;BME280_pressure;Samples;Min_cycle;Max_cycle;Signal;HPM_P1;HPM_P2
2023/10/26 00:00:31;;;;;;;19.73;12.90;;;;;;;-145.18;100.00;46648.69;5033661;28;20052;-66
2023/10/26 00:02:56;;;;;;;23.00;13.40;;;;;;;-145.18;100.00;46642.81;5031285;28;20040;-66
2023/10/26 00:05:22;;;;;;;21.03;12.90;;;;;;;-145.18;100.00;46646.72;5031428;28;20021;-66
2023/10/26 00:07:47;;;;;;;17.10;10.30;;;;;;;-145.18;100.00;46642.81;5033044;28;20474;-66
2023/10/26 00:10:12;;;;;;;16.40;11.60;;;;;;;-145.18;100.00;46644.78;5029997;28;20045;-67
2023/10/26 00:12:38;;;;;;;17.10;10.60;;;;;;;-145.18;100.00;46646.72;5027413;28;20072;-66
2023/10/26 00:15:04;;;;;;;15.77;10.27;;;;;;;-145.18;100.00;46646.72;5032034;28;20092;-66
2023/10/26 00:17:29;;;;;;;18.50;11.63;;;;;;;-145.18;100.00;46646.72;5017408;28;20034;-66
2023/10/26 00:19:55;;;;;;;20.03;11.97;;;;;;;-145.18;100.00;46644.78;5028196;28;20547;-66
2023/10/26 00:22:21;;;;;;;16.47;11.00;;;;;;;-145.18;100.00;46646.72;5030310;28;20112;-66
2023/10/26 00:24:47;;;;;;;16.67;10.80;;;;;;;-145.18;100.00;46648.69;5032419;28;20386;-66
2023/10/26 00:27:14;;;;;;;16.13;9.87;;;;;;;-145.18;100.00;46642.81;5018006;28;20087;-66
2023/10/26 00:29:40;;;;;;;17.73;9.93;;;;;;;-145.18;100.00;46644.78;5026192;28;20041;-66
2023/10/26 00:32:06;;;;;;;20.27;11.53;;;;;;;-145.18;100.00;46644.78;5026174;28;20470;-66
2023/10/26 00:34:32;;;;;;;21.17;13.10;;;;;;;-145.18;100.00;46646.72;5031102;28;20053;-66
2023/10/26 00:36:58;;;;;;;18.97;11.70;;;;;;;-145.18;100.00;46646.72;5031138;28;20021;-66
2023/10/26 00:39:23;;;;;;;21.30;11.53;;;;;;;-145.18;100.00;46644.78;5029843;28;20417;-66
2023/10/26 00:41:53;;;;;;;16.43;11.07;;;;;;;-145.18;100.00;46644.78;5026049;28;20046;-66
2023/10/26 00:44:20;;;;;;;18.03;11.53;;;;;;;-145.18;100.00;46644.78;5023972;28;20481;-66
2023/10/26 00:46:45;;;;;;;21.00;12.70;;;;;;;-145.18;100.00;46644.78;5026210;28;20052;-66
2023/10/26 00:49:12;;;;;;;20.20;12.57;;;;;;;-145.18;100.00;46642.81;5017477;28;20025;-66
2023/10/26 00:51:44;;;;;;;19.67;13.30;;;;;;;-145.18;100.00;46646.72;5020899;28;20022;-66
2023/10/26 00:54:10;;;;;;;19.60;12.53;;;;;;;-145.18;100.00;46640.88;5015915;28;20030;-66
2023/10/26 00:56:36;;;;;;;20.63;12.77;;;;;;;-145.18;100.00;46642.81;5019068;28;20030;-66
2023/10/26 00:59:03;;;;;;;20.37;12.00;;;;;;;-145.18;100.00;46644.78;5023315;28;20091;-66
2023/10/26 01:01:30;;;;;;;19.87;11.23;;;;;;;-145.18;100.00;46646.72;5024465;28;20096;-66
2023/10/26 01:03:56;;;;;;;20.03;12.67;;;;;;;-145.18;100.00;46640.88;5019387;28;20402;-66
2023/10/26 01:06:22;;;;;;;27.03;14.73;;;;;;;-145.18;100.00;46642.81;5020860;28;20030;-67
2023/10/26 01:08:48;;;;;;;18.43;12.07;;;;;;;-145.18;100.00;46640.88;5019360;28;20041;-66
2023/10/26 01:11:14;;;;;;;27.07;14.57;;;;;;;-145.18;100.00;46646.72;5025409;28;20029;-66
2023/10/26 01:13:40;;;;;;;21.93;14.30;;;;;;;-145.18;100.00;46642.81;5017202;28;20033;-66
2023/10/26 01:16:06;;;;;;;22.23;14.37;;;;;;;-145.18;100.00;46644.78;5018730;28;20553;-66
2023/10/26 01:18:32;;;;;;;20.53;13.47;;;;;;;-145.18;100.00;46644.78;5021803;28;20158;-66
2023/10/26 01:20:57;;;;;;;19.97;12.97;;;;;;;-145.18;100.00;46642.81;5029839;28;20452;-66
2023/10/26 01:23:23;;;;;;;20.40;12.93;;;;;;;-145.18;100.00;46638.91;5024484;28;20025;-66
2023/10/26 01:25:52;;;;;;;21.03;12.60;;;;;;;-145.18;100.00;46644.78;5018701;28;20041;-66
2023/10/26 01:28:17;;;;;;;18.40;11.47;;;;;;;-145.18;100.00;46638.91;5032012;28;20035;-66
2023/10/26 01:30:42;;;;;;;22.27;13.60;;;;;;;-145.18;100.00;46638.91;5029881;28;20037;-66
2023/10/26 01:33:08;;;;;;;22.07;11.37;;;;;;;-145.18;100.00;46640.88;5031086;28;20127;-66
2023/10/26 01:35:45;;;;;;;18.57;12.37;;;;;;;-145.18;100.00;46640.88;5031378;28;20091;-66
2023/10/26 01:38:12;;;;;;;18.67;11.90;;;;;;;-145.18;100.00;46640.88;5031887;28;20506;-66
2023/10/26 01:40:37;;;;;;;20.23;11.77;;;;;;;-145.18;100.00;46638.91;5031224;28;20466;-66
2023/10/26 01:43:03;;;;;;;23.10;14.03;;;;;;;-145.18;100.00;46636.94;5030775;28;20076;-66
2023/10/26 01:45:28;;;;;;;23.00;14.13;;;;;;;-145.18;100.00;46644.78;5029806;28;20110;-66
2023/10/26 01:47:54;;;;;;;20.77;12.83;;;;;;;-145.18;100.00;46642.81;5031752;28;20091;-66
2023/10/26 01:50:20;;;;;;;19.17;12.13;;;;;;;-145.18;100.00;46636.94;5029333;28;20088;-66
2023/10/26 01:52:45;;;;;;;21.87;13.23;;;;;;;-145.18;100.00;46640.88;5029147;28;20703;-66
2023/10/26 01:55:10;;;;;;;24.37;13.30;;;;;;;-145.18;100.00;46638.91;5023978;28;20426;-66
2023/10/26 01:57:36;;;;;;;27.60;14.90;;;;;;;-145.18;100.00;46638.91;5018461;28;20563;-66
2023/10/26 02:00:02;;;;;;;46.43;12.73;;;;;;;-145.18;100.00;46636.94;5018906;28;20022;-66
2023/10/26 02:02:27;;;;;;;22.40;13.27;;;;;;;-145.18;100.00;46638.91;5025015;28;20029;-65
2023/10/26 02:04:54;;;;;;;22.37;12.60;;;;;;;-145.18;100.00;46642.81;5019221;28;20037;-66
2023/10/26 02:07:20;;;;;;;24.93;13.73;;;;;;;-145.18;100.00;46636.94;5026416;28;20026;-66
2023/10/26 02:09:45;;;;;;;25.87;14.10;;;;;;;-145.18;100.00;46642.81;5020950;28;20033;-66
2023/10/26 02:12:11;;;;;;;64.03;14.67;;;;;;;-145.18;100.00;46640.88;5018676;28;20055;-66
2023/10/26 02:14:36;;;;;;;85.60;14.03;;;;;;;-145.18;100.00;46640.88;5027367;28;20034;-66
2023/10/26 02:17:01;;;;;;;76.77;13.93;;;;;;;-145.18;100.00;46638.91;5031506;28;20033;-66
2023/10/26 02:19:27;;;;;;;22.20;12.43;;;;;;;-145.18;100.00;46636.94;5031591;28;20041;-66
2023/10/26 02:21:52;;;;;;;72.03;9.40;;;;;;;-145.18;100.00;46646.72;5028612;28;20088;-66
2023/10/26 02:24:18;;;;;;;18.83;7.83;;;;;;;-145.18;100.00;46642.81;5027121;28;20534;-66
2023/10/26 02:26:44;;;;;;;13.87;8.37;;;;;;;-145.18;100.00;46640.88;5025111;28;20121;-66
2023/10/26 02:29:09;;;;;;;12.67;8.30;;;;;;;-145.18;100.00;46642.81;5035615;28;20120;-66
2023/10/26 02:31:34;;;;;;;15.60;9.33;;;;;;;-145.18;100.00;46642.81;5035409;28;20035;-65
2023/10/26 02:34:00;;;;;;;42.13;9.03;;;;;;;-145.18;100.00;46642.81;5035306;28;20045;-66
2023/10/26 02:36:25;;;;;;;36.10;8.37;;;;;;;-145.18;100.00;46642.81;5024563;28;20033;-66
2023/10/26 02:38:50;;;;;;;16.07;6.47;;;;;;;-145.18;100.00;46642.81;5023576;28;20062;-66
2023/10/26 02:41:16;;;;;;;29.70;7.43;;;;;;;-145.18;100.00;46644.78;5026323;28;20370;-65
2023/10/26 02:43:41;;;;;;;128.17;11.33;;;;;;;-145.18;100.00;46640.88;5029669;28;20057;-66
2023/10/26 02:46:08;;;;;;;88.93;11.43;;;;;;;-145.18;100.00;46642.81;5025528;28;20469;-65
2023/10/26 02:48:34;;;;;;;48.67;9.17;;;;;;;-145.18;100.00;46644.78;5020993;28;20053;-66
2023/10/26 02:51:00;;;;;;;25.67;9.37;;;;;;;-145.18;100.00;46644.78;5027044;28;20278;-65
2023/10/26 02:53:25;;;;;;;41.27;11.07;;;;;;;-145.18;100.00;46650.63;5026544;28;20065;-66
2023/10/26 02:55:50;;;;;;;56.93;11.13;;;;;;;-145.18;100.00;46648.69;5027246;28;20058;-66
2023/10/26 02:58:16;;;;;;;21.23;10.53;;;;;;;-145.18;100.00;46642.81;5021475;28;20128;-66
2023/10/26 03:00:41;;;;;;;68.43;11.53;;;;;;;-145.18;100.00;46646.72;5031149;28;20034;-66
2023/10/26 03:03:07;;;;;;;70.47;11.67;;;;;;;-145.18;100.00;46644.78;5018301;28;20128;-66
2023/10/26 03:05:33;;;;;;;37.67;11.30;;;;;;;-145.18;100.00;46646.72;5022614;28;20061;-66
2023/10/26 03:07:59;;;;;;;21.13;10.47;;;;;;;-145.18;100.00;46642.81;5020485;28;20034;-66
2023/10/26 03:10:25;;;;;;;55.93;10.83;;;;;;;-145.18;100.00;46642.81;5025611;28;20052;-66
2023/10/26 03:12:52;;;;;;;45.33;10.10;;;;;;;-145.18;100.00;46642.81;5026614;28;20540;-65
2023/10/26 03:15:18;;;;;;;40.13;9.70;;;;;;;-145.18;100.00;46646.72;5026122;28;20373;-66
2023/10/26 03:17:43;;;;;;;30.57;9.60;;;;;;;-145.18;100.00;46646.72;5033823;28;20029;-65
2023/10/26 03:20:09;;;;;;;44.07;10.07;;;;;;;-145.18;100.00;46644.78;5026067;28;20033;-66
2023/10/26 03:22:34;;;;;;;11.40;8.63;;;;;;;-145.18;100.00;46648.69;5022143;28;20026;-65
2023/10/26 03:25:00;;;;;;;23.00;9.40;;;;;;;-145.18;100.00;46644.78;5026343;28;20112;-66
2023/10/26 03:27:26;;;;;;;58.57;9.93;;;;;;;-145.18;100.00;46642.81;5028178;28;20037;-65
2023/10/26 03:29:52;;;;;;;51.33;8.73;;;;;;;-145.18;100.00;46644.78;5034289;28;20116;-65
2023/10/26 03:32:17;;;;;;;43.30;9.50;;;;;;;-145.18;100.00;46646.72;5027512;28;20030;-66
2023/10/26 03:34:43;;;;;;;39.13;10.13;;;;;;;-145.18;100.00;46644.78;5026125;28;20772;-66
2023/10/26 03:37:08;;;;;;;80.60;11.90;;;;;;;-145.18;100.00;46650.63;5029855;28;20037;-66
2023/10/26 03:39:35;;;;;;;30.13;11.20;;;;;;;-145.18;100.00;46640.88;5025444;28;20529;-66
2023/10/26 03:42:00;;;;;;;32.80;11.53;;;;;;;-145.18;100.00;46648.69;5022066;28;20031;-66
2023/10/26 03:44:25;;;;;;;67.17;10.80;;;;;;;-145.18;100.00;46640.88;5024155;28;20365;-65
2023/10/26 03:46:52;;;;;;;108.17;12.93;;;;;;;-145.18;100.00;46642.81;5017924;28;20041;-66
2023/10/26 03:49:20;;;;;;;27.90;11.43;;;;;;;-145.18;100.00;46644.78;5024973;28;20037;-65
2023/10/26 03:51:46;;;;;;;27.30;11.47;;;;;;;-145.18;100.00;46642.81;5019166;28;20018;-66
2023/10/26 03:54:12;;;;;;;42.73;11.17;;;;;;;-145.18;100.00;46646.72;5023581;28;20115;-66
2023/10/26 03:56:38;;;;;;;28.80;13.10;;;;;;;-145.18;100.00;46640.88;5020043;28;20042;-66
2023/10/26 03:59:03;;;;;;;49.17;12.17;;;;;;;-145.18;100.00;46642.81;5023008;28;20513;-65
2023/10/26 04:01:28;;;;;;;32.73;12.10;;;;;;;-145.18;100.00;46644.78;5018476;28;20117;-65
2023/10/26 04:03:54;;;;;;;21.53;11.40;;;;;;;-145.18;100.00;46644.78;5022621;28;20065;-66
2023/10/26 04:06:19;;;;;;;25.93;11.47;;;;;;;-145.18;100.00;46644.78;5017178;28;20445;-66
2023/10/26 04:08:44;;;;;;;26.90;11.30;;;;;;;-145.18;100.00;46642.81;5021947;28;20048;-66
2023/10/26 04:11:18;;;;;;;38.90;12.07;;;;;;;-145.18;100.00;46636.94;5024987;28;20754;-66
2023/10/26 04:13:44;;;;;;;36.00;11.83;;;;;;;-145.18;100.00;46642.81;5027446;28;20028;-66
2023/10/26 04:16:09;;;;;;;48.33;13.63;;;;;;;-145.18;100.00;46644.78;5031930;28;20116;-66
2023/10/26 04:18:35;;;;;;;35.97;12.63;;;;;;;-145.18;100.00;46638.91;5028742;28;20076;-66
2023/10/26 04:21:00;;;;;;;28.40;12.77;;;;;;;-145.18;100.00;46638.91;5023860;28;20124;-66
2023/10/26 04:23:27;;;;;;;39.83;13.83;;;;;;;-145.18;100.00;46644.78;5021217;28;20397;-66
2023/10/26 04:25:52;;;;;;;34.40;12.23;;;;;;;-145.18;100.00;46642.81;5020677;28;20030;-65
2023/10/26 04:28:18;;;;;;;36.67;14.00;;;;;;;-145.18;100.00;46642.81;5030246;28;20040;-65
2023/10/26 04:30:47;;;;;;;39.77;14.93;;;;;;;-145.18;100.00;46638.91;5029128;28;20037;-66
2023/10/26 04:33:13;;;;;;;42.77;15.13;;;;;;;-145.18;100.00;46636.94;5023927;28;20025;-65
2023/10/26 04:35:46;;;;;;;31.00;15.70;;;;;;;-145.18;100.00;46640.88;5022919;28;20045;-66
2023/10/26 04:38:12;;;;;;;36.43;15.60;;;;;;;-145.18;100.00;46640.88;5028494;28;20026;-65
2023/10/26 04:40:42;;;;;;;37.00;14.97;;;;;;;-145.18;100.00;46640.88;5023061;28;20573;-65
2023/10/26 04:43:11;;;;;;;30.27;15.37;;;;;;;-145.18;100.00;46642.81;5022089;28;20041;-66
2023/10/26 04:45:36;;;;;;;35.53;17.30;;;;;;;-145.18;100.00;46642.81;5022287;28;20033;-66
2023/10/26 04:48:02;;;;;;;36.60;16.90;;;;;;;-145.18;100.00;46644.78;5021044;28;20037;-66
2023/10/26 04:50:32;;;;;;;35.87;17.87;;;;;;;-145.18;100.00;46638.91;5013782;28;20037;-66
2023/10/26 04:52:58;;;;;;;30.27;16.27;;;;;;;-145.18;100.00;46642.81;5016298;28;20079;-65
2023/10/26 04:55:23;;;;;;;38.07;16.27;;;;;;;-145.18;100.00;46640.88;5021756;28;20048;-65
2023/10/26 04:57:49;;;;;;;42.37;17.60;;;;;;;-145.18;100.00;46644.78;5026874;28;20481;-66
2023/10/26 05:00:14;;;;;;;55.90;20.50;;;;;;;-145.18;100.00;46640.88;5022276;28;20393;-66
2023/10/26 05:02:40;;;;;;;53.83;21.10;;;;;;;-145.18;100.00;46640.88;5022083;28;20044;-65
2023/10/26 05:05:07;;;;;;;61.17;20.50;;;;;;;-145.18;100.00;46640.88;5018507;28;20470;-65
2023/10/26 05:07:33;;;;;;;56.00;20.57;;;;;;;-145.18;100.00;46640.88;5016134;28;20410;-66
2023/10/26 05:10:00;;;;;;;66.90;19.37;;;;;;;-145.18;100.00;46644.78;5032052;28;20021;-65
2023/10/26 05:12:25;;;;;;;66.33;19.03;;;;;;;-145.18;100.00;46642.81;5021885;28;20040;-66
2023/10/26 05:14:51;;;;;;;111.67;22.17;;;;;;;-145.18;100.00;46644.78;5025445;28;20045;-65
2023/10/26 05:17:16;;;;;;;62.67;20.70;;;;;;;-145.18;100.00;46644.78;5021200;28;20041;-65
2023/10/26 05:19:41;;;;;;;60.73;21.70;;;;;;;-145.18;100.00;46644.78;5017415;28;20034;-65
2023/10/26 05:22:07;;;;;;;53.77;21.53;;;;;;;-145.18;100.00;46642.81;5022583;28;20033;-65
2023/10/26 05:24:32;;;;;;;54.97;20.50;;;;;;;-145.18;100.00;46644.78;5015305;28;20041;-66
2023/10/26 05:26:58;;;;;;;61.70;20.57;;;;;;;-145.18;100.00;46640.88;5022395;28;20151;-65
2023/10/26 05:29:23;;;;;;;59.80;21.40;;;;;;;-145.18;100.00;46642.81;5023860;28;20481;-65
2023/10/26 05:31:49;;;;;;;55.07;19.60;;;;;;;-145.18;100.00;46640.88;5021569;28;20041;-65
2023/10/26 05:34:14;;;;;;;111.83;20.30;;;;;;;-145.18;100.00;46642.81;5023742;28;20029;-65
2023/10/26 05:36:40;;;;;;;100.90;17.87;;;;;;;-145.18;100.00;46636.94;5019757;28;20048;-65
2023/10/26 05:39:06;;;;;;;46.00;17.53;;;;;;;-145.18;100.00;46638.91;5022007;28;20163;-65
2023/10/26 05:41:31;;;;;;;132.13;16.60;;;;;;;-145.18;100.00;46642.81;5020787;28;20040;-66
2023/10/26 05:43:56;;;;;;;146.83;17.27;;;;;;;-145.18;100.00;46642.81;5021884;28;20044;-65
2023/10/26 05:46:22;;;;;;;62.33;16.90;;;;;;;-145.18;100.00;46642.81;5023869;28;20065;-66
2023/10/26 05:48:47;;;;;;;82.43;15.30;;;;;;;-145.18;100.00;46644.78;5022479;28;20037;-65
2023/10/26 05:51:12;;;;;;;75.60;15.47;;;;;;;-145.18;100.00;46636.94;5022654;28;20065;-65
2023/10/26 05:53:38;;;;;;;75.37;16.53;;;;;;;-145.18;100.00;46640.88;5020835;28;20037;-65
2023/10/26 05:56:04;;;;;;;54.87;16.63;;;;;;;-145.18;100.00;46640.88;5022434;28;20037;-65
2023/10/26 05:58:29;;;;;;;78.50;16.30;;;;;;;-145.18;100.00;46640.88;5026573;28;20091;-66
2023/10/26 06:00:55;;;;;;;51.43;18.17;;;;;;;-145.18;100.00;46642.81;5022662;28;20508;-65
2023/10/26 06:03:20;;;;;;;70.43;17.33;;;;;;;-145.18;100.00;46638.91;5025044;28;20052;-65
2023/10/26 06:05:47;;;;;;;46.40;16.47;;;;;;;-145.18;100.00;46638.91;5029469;28;20025;-66
2023/10/26 06:08:13;;;;;;;48.07;15.43;;;;;;;-145.18;100.00;46636.94;5022219;28;20486;-66
2023/10/26 06:10:38;;;;;;;45.33;16.77;;;;;;;-145.18;100.00;46636.94;5021906;28;20041;-65
2023/10/26 06:13:07;;;;;;;51.30;17.40;;;;;;;-145.18;100.00;46644.78;5020507;28;20401;-66
2023/10/26 06:15:33;;;;;;;63.03;17.33;;;;;;;-145.18;100.00;46633.06;5024751;28;20029;-66
2023/10/26 06:17:58;;;;;;;41.03;16.57;;;;;;;-145.18;100.00;46636.94;5024590;28;20103;-65
2023/10/26 06:20:27;;;;;;;50.33;18.13;;;;;;;-145.18;100.00;46635.00;5021195;28;20068;-65
2023/10/26 06:22:53;;;;;;;38.67;15.60;;;;;;;-145.18;100.00;46638.91;5027136;28;20033;-65
2023/10/26 06:25:18;;;;;;;41.77;17.80;;;;;;;-145.18;100.00;46640.88;5019792;28;20394;-65
2023/10/26 06:27:47;;;;;;;50.77;18.20;;;;;;;-145.18;100.00;46636.94;5027834;28;20021;-65
2023/10/26 06:30:12;;;;;;;46.90;17.30;;;;;;;-145.18;100.00;46636.94;5030537;28;20672;-65
2023/10/26 06:32:38;;;;;;;53.67;17.30;;;;;;;-145.18;100.00;46640.88;5030839;28;20033;-66
2023/10/26 06:35:03;;;;;;;44.77;16.20;;;;;;;-145.18;100.00;46640.88;5030137;28;20029;-65
2023/10/26 06:37:29;;;;;;;74.37;17.93;;;;;;;-145.18;100.00;46636.94;5030888;28;20044;-65
2023/10/26 06:39:54;;;;;;;82.53;18.77;;;;;;;-145.18;100.00;46642.81;5030743;28;20522;-65
2023/10/26 06:42:19;;;;;;;76.63;17.27;;;;;;;-145.18;100.00;46635.00;5031146;28;20030;-65
2023/10/26 06:44:45;;;;;;;66.77;18.37;;;;;;;-145.18;100.00;46638.91;5038873;28;20033;-65
2023/10/26 06:47:10;;;;;;;60.33;17.03;;;;;;;-145.18;100.00;46633.06;5012104;28;20052;-65
2023/10/26 06:49:36;;;;;;;93.77;17.30;;;;;;;-145.18;100.00;46642.81;5022942;28;20044;-65
2023/10/26 06:52:02;;;;;;;51.97;17.30;;;;;;;-145.18;100.00;46636.94;5025247;28;20436;-65
2023/10/26 06:54:27;;;;;;;109.10;18.20;;;;;;;-145.18;100.00;46638.91;5032787;28;20048;-65
2023/10/26 06:56:52;;;;;;;62.90;17.30;;;;;;;-145.18;100.00;46638.91;5020317;28;20414;-66
2023/10/26 06:59:18;;;;;;;67.57;18.43;;;;;;;-145.18;100.00;46642.81;5020241;28;20033;-65
2023/10/26 07:01:44;;;;;;;87.20;19.17;;;;;;;-145.18;100.00;46644.78;5030961;28;20481;-65
2023/10/26 07:04:10;;;;;;;63.70;18.30;;;;;;;-145.18;100.00;46636.94;5032326;28;20095;-65
2023/10/26 07:06:35;;;;;;;86.53;20.30;;;;;;;-145.18;100.00;46638.91;5023090;28;20057;-66
2023/10/26 07:09:02;;;;;;;89.30;20.63;;;;;;;-145.18;100.00;46638.91;5029020;28;20044;-66
2023/10/26 07:11:27;;;;;;;58.13;18.37;;;;;;;-145.18;100.00;46640.88;5030405;28;20029;-65
2023/10/26 07:13:52;;;;;;;61.33;18.70;;;;;;;-145.18;100.00;46638.91;5024597;28;20413;-66
2023/10/26 07:16:18;;;;;;;94.30;20.20;;;;;;;-145.18;100.00;46638.91;5028034;28;20112;-65
2023/10/26 07:18:43;;;;;;;59.17;18.27;;;;;;;-145.18;100.00;46638.91;5025883;28;20481;-65
2023/10/26 07:21:09;;;;;;;49.03;18.70;;;;;;;-145.18;100.00;46635.00;5030482;28;20445;-66
2023/10/26 07:23:34;;;;;;;68.93;18.23;;;;;;;-145.18;100.00;46640.88;5027919;28;20563;-65
2023/10/26 07:26:00;;;;;;;83.20;19.13;;;;;;;-145.18;100.00;46642.81;5030210;28;20100;-66
2023/10/26 07:28:25;;;;;;;58.10;19.63;;;;;;;-145.18;100.00;46640.88;5034712;28;20044;-65
2023/10/26 07:30:51;;;;;;;65.47;19.10;;;;;;;-145.18;100.00;46636.94;5042839;28;20107;-65
2023/10/26 07:33:20;;;;;;;73.60;18.37;;;;;;;-145.18;100.00;46636.94;5029119;28;20029;-65
2023/10/26 07:35:50;;;;;;;67.70;17.93;;;;;;;-145.18;100.00;46636.94;5027061;28;20072;-66
2023/10/26 07:38:16;;;;;;;85.37;18.90;;;;;;;-145.18;100.00;46642.81;5032442;28;20029;-65
2023/10/26 07:40:48;;;;;;;58.57;17.63;;;;;;;-145.18;100.00;46644.78;5023666;28;20803;-65
2023/10/26 07:43:14;;;;;;;38.63;18.20;;;;;;;-145.18;100.00;46640.88;5026356;28;20121;-65
2023/10/26 07:45:39;;;;;;;43.77;17.67;;;;;;;-145.18;100.00;46640.88;5023429;28;20465;-66
2023/10/26 07:48:05;;;;;;;54.83;16.60;;;;;;;-145.18;100.00;46636.94;5016985;28;20080;-66
2023/10/26 07:50:30;;;;;;;45.97;17.23;;;;;;;-145.18;100.00;46636.94;5030214;28;20539;-66
2023/10/26 07:52:56;;;;;;;53.87;17.17;;;;;;;-145.18;100.00;46638.91;5033193;28;20382;-66
2023/10/26 07:55:21;;;;;;;54.30;16.67;;;;;;;-145.18;100.00;46636.94;5035464;28;20041;-65
2023/10/26 07:57:47;;;;;;;51.63;16.77;;;;;;;-145.18;100.00;46635.00;5024112;28;20119;-68
2023/10/26 08:00:13;;;;;;;51.83;17.73;;;;;;;-145.18;100.00;46633.06;5028067;28;20098;-68
2023/10/26 08:02:39;;;;;;;89.63;17.97;;;;;;;-145.18;100.00;46636.94;5025040;28;20030;-68
2023/10/26 08:05:05;;;;;;;56.57;16.63;;;;;;;-145.18;100.00;46635.00;5024824;28;20541;-68
2023/10/26 08:07:30;;;;;;;75.80;16.50;;;;;;;-145.18;100.00;46636.94;5035325;28;20026;-68
2023/10/26 08:09:56;;;;;;;86.23;17.03;;;;;;;-145.18;100.00;46633.06;5032560;28;20041;-68
2023/10/26 08:12:22;;;;;;;100.80;16.90;;;;;;;-145.18;100.00;46636.94;5021363;28;20030;-68
2023/10/26 08:14:50;;;;;;;69.33;15.97;;;;;;;-145.18;100.00;46633.06;5028543;28;20041;-68
2023/10/26 08:17:16;;;;;;;65.80;16.37;;;;;;;-145.18;100.00;46636.94;5029394;28;20033;-68
2023/10/26 08:19:41;;;;;;;67.13;16.43;;;;;;;-145.18;100.00;46636.94;5034098;28;20037;-68
2023/10/26 08:22:09;;;;;;;83.97;16.57;;;;;;;-145.18;100.00;46636.94;5032331;28;20481;-68
2023/10/26 08:24:34;;;;;;;73.13;17.00;;;;;;;-145.18;100.00;46633.06;5030568;28;20029;-68
2023/10/26 08:27:00;;;;;;;60.70;15.57;;;;;;;-145.18;100.00;46638.91;5025964;28;20075;-68
2023/10/26 08:29:26;;;;;;;84.47;15.37;;;;;;;-145.18;100.00;46633.06;5029184;28;20040;-68
2023/10/26 08:31:51;;;;;;;68.33;16.57;;;;;;;-145.18;100.00;46631.09;5029511;28;20096;-68
2023/10/26 08:34:17;;;;;;;44.07;15.87;;;;;;;-145.18;100.00;46633.06;5033601;28;20487;-68
2023/10/26 08:36:42;;;;;;;65.90;14.17;;;;;;;-145.18;100.00;46636.94;5033809;28;20036;-68
2023/10/26 08:39:07;;;;;;;50.83;14.23;;;;;;;-145.18;100.00;46635.00;5032627;28;20086;-68
2023/10/26 08:41:33;;;;;;;70.17;16.40;;;;;;;-145.18;100.00;46633.06;5026006;28;20034;-68
2023/10/26 08:44:00;;;;;;;80.77;16.07;;;;;;;-145.18;100.00;46633.06;5028728;28;20035;-68
2023/10/26 08:46:26;;;;;;;39.03;14.83;;;;;;;-145.18;100.00;46635.00;5018750;28;20062;-68
2023/10/26 08:48:54;;;;;;;72.47;15.37;;;;;;;-145.18;100.00;46638.91;5015534;28;20108;-68
2023/10/26 08:51:20;;;;;;;81.07;15.33;;;;;;;-145.18;100.00;46635.00;5024919;28;20673;-68
2023/10/26 08:53:46;;;;;;;60.50;15.47;;;;;;;-145.18;100.00;46636.94;5024183;28;20032;-68
2023/10/26 08:56:15;;;;;;;51.23;15.30;;;;;;;-145.18;100.00;46636.94;5016070;28;20040;-68
2023/10/26 08:58:42;;;;;;;57.70;14.77;;;;;;;-145.18;100.00;46638.91;5033544;28;20439;-68
2023/10/26 09:01:07;;;;;;;43.63;14.10;;;;;;;-145.18;100.00;46638.91;5025817;28;20044;-69
2023/10/26 09:03:34;;;;;;;50.67;15.23;;;;;;;-145.18;100.00;46640.88;5018605;28;20465;-68
2023/10/26 09:06:00;;;;;;;44.17;14.00;;;;;;;-145.18;100.00;46642.81;5020304;28;20056;-66
2023/10/26 09:08:30;;;;;;;41.73;13.70;;;;;;;-145.18;100.00;46640.88;5028503;28;20061;-65
2023/10/26 09:10:56;;;;;;;42.50;14.13;;;;;;;-145.18;100.00;46642.81;5026782;28;20064;-65
2023/10/26 09:13:28;;;;;;;53.23;14.27;;;;;;;-145.18;100.00;46642.81;5015277;28;20034;-65
2023/10/26 09:15:57;;;;;;;37.73;13.97;;;;;;;-145.18;100.00;46636.94;5027195;28;20033;-66
2023/10/26 09:18:24;;;;;;;42.30;13.90;;;;;;;-145.18;100.00;46638.91;5026410;28;20102;-65
2023/10/26 09:21:10;;;;;;;40.90;14.20;;;;;;;-145.18;100.00;46636.94;5031912;28;20029;-65
2023/10/26 09:23:40;;;;;;;34.97;14.00;;;;;;;-145.18;100.00;46642.81;5018143;28;20482;-66
2023/10/26 09:26:09;;;;;;;40.83;14.80;;;;;;;-145.18;100.00;46642.81;5033698;28;20064;-66
2023/10/26 09:28:55;;;;;;;38.23;14.40;;;;;;;-145.18;100.00;46638.91;5029992;28;20437;-65
2023/10/26 09:31:22;;;;;;;49.72;14.23;;;;;;;-145.18;100.00;46636.94;5018492;28;20030;-66
2023/10/26 09:33:48;;;;;;;35.97;14.77;;;;;;;-145.18;100.00;46633.06;5024794;28;20041;-65
2023/10/26 09:36:15;;;;;;;39.30;14.10;;;;;;;-145.18;100.00;46636.94;5031563;28;20045;-65
2023/10/26 09:38:41;;;;;;;30.63;13.93;;;;;;;-145.18;100.00;46640.88;5031831;28;20031;-65
2023/10/26 09:41:11;;;;;;;34.47;14.60;;;;;;;-145.18;100.00;46640.88;5029477;28;20053;-66
2023/10/26 09:43:37;;;;;;;40.40;14.80;;;;;;;-145.18;100.00;46631.09;5028406;28;20125;-65
2023/10/26 09:46:02;;;;;;;41.57;15.70;;;;;;;-145.18;100.00;46633.06;5030845;28;20044;-65
2023/10/26 09:48:31;;;;;;;40.87;15.00;;;;;;;-145.18;100.00;46636.94;5031210;28;20037;-65
2023/10/26 09:51:00;;;;;;;49.27;16.43;;;;;;;-145.18;100.00;46633.06;5042759;28;20074;-66
2023/10/26 09:53:30;;;;;;;49.87;16.67;;;;;;;-145.18;100.00;46633.06;5025627;28;20033;-66
2023/10/26 09:55:56;;;;;;;40.90;15.93;;;;;;;-145.18;100.00;46636.94;5025693;28;20047;-65
2023/10/26 09:58:25;;;;;;;49.13;15.97;;;;;;;-145.18;100.00;46636.94;5030046;28;20043;-66
2023/10/26 10:00:50;;;;;;;40.50;16.53;;;;;;;-145.18;100.00;46633.06;5031757;28;20378;-65
2023/10/26 10:03:17;;;;;;;48.70;15.33;;;;;;;-145.18;100.00;46633.06;5025905;28;20067;-65
2023/10/26 10:05:45;;;;;;;45.70;15.67;;;;;;;-145.18;100.00;46635.00;5028248;28;20067;-66
2023/10/26 10:08:10;;;;;;;52.87;15.20;;;;;;;-145.18;100.00;46635.00;5027375;28;20053;-66
2023/10/26 10:10:36;;;;;;;44.57;13.20;;;;;;;-145.18;100.00;46627.19;5031493;28;20052;-66
2023/10/26 10:13:02;;;;;;;53.57;15.10;;;;;;;-145.18;100.00;46636.94;5024065;28;20489;-66
2023/10/26 10:15:38;;;;;;;51.80;15.60;;;;;;;-145.18;100.00;46633.06;5028460;28;20379;-66
2023/10/26 10:18:07;;;;;;;40.67;16.87;;;;;;;-145.18;100.00;46638.91;5015966;28;20430;-69
2023/10/26 10:20:34;;;;;;;44.13;17.27;;;;;;;-145.18;100.00;46633.06;5021142;28;20440;-68
2023/10/26 10:23:01;;;;;;;44.57;18.03;;;;;;;-145.18;100.00;46636.94;5030756;28;20091;-68
2023/10/26 10:25:53;;;;;;;40.07;16.93;;;;;;;-145.18;100.00;46636.94;5028754;28;20032;-69
2023/10/26 10:28:19;;;;;;;44.70;17.83;;;;;;;-145.18;100.00;46640.88;5026743;28;20042;-69
2023/10/26 10:30:56;;;;;;;45.90;17.23;;;;;;;-145.18;100.00;46636.94;5018693;28;20084;-69
2023/10/26 10:33:26;;;;;;;42.10;17.70;;;;;;;-145.18;100.00;46644.78;5027241;28;20049;-69
2023/10/26 10:36:00;;;;;;;38.97;16.23;;;;;;;-145.18;100.00;46640.88;5030964;28;20095;-68
2023/10/26 10:38:26;;;;;;;38.03;18.10;;;;;;;-145.18;100.00;46638.91;5021771;28;20034;-68
2023/10/26 10:40:54;;;;;;;32.67;15.43;;;;;;;-145.18;100.00;46648.69;5037871;28;20421;-68
2023/10/26 10:43:34;;;;;;;38.43;17.27;;;;;;;-145.18;100.00;46648.69;5025407;28;20041;-69
2023/10/26 10:46:29;;;;;;;33.50;16.27;;;;;;;-145.18;100.00;46648.69;5032258;28;20083;-68
2023/10/26 10:49:01;;;;;;;33.93;15.47;;;;;;;-145.18;100.00;46650.63;5025341;28;20052;-69
2023/10/26 10:51:36;;;;;;;35.77;17.07;;;;;;;-145.18;100.00;46648.69;5025795;28;20161;-69